sensor_id;sensor_type;location;lat;lon;timestamp;P1;durP1;ratioP1;P2;durP2;ratioP2
38487;SDS011;57384;51.986;4.458;2023-07-29T00:01:23;5.75;;;5.55;;
38487;SDS011;57384;51.986;4.458;2023-07-29T00:03:49;4.97;;;4.78;;
38487;SDS011;57384;51.986;4.458;2023-07-29T00:06:16;6.32;;;6.13;;
38487;SDS011;57384;51.986;4.458;2023-07-29T00:08:46;5.25;;;5.05;;
38487;SDS011;57384;51.986;4.458;2023-07-29T00:11:14;6.10;;;5.90;;
38487;SDS011;57384;51.986;4.458;2023-07-29T00:13:40;5.93;;;5.72;;
38487;SDS011;57384;51.986;4.458;2023-07-29T00:16:07;5.25;;;5.05;;
38487;SDS011;57384;51.986;4.458;2023-07-29T00:18:34;5.18;;;4.97;;
38487;SDS011;57384;51.986;4.458;2023-07-29T00:21:01;6.05;;;5.85;;
38487;SDS011;57384;51.986;4.458;2023-07-29T00:23:28;5.32;;;5.13;;
38487;SDS011;57384;51.986;4.458;2023-07-29T00:25:55;5.18;;;4.97;;
38487;SDS011;57384;51.986;4.458;2023-07-29T00:28:22;5.53;;;5.32;;
38487;SDS011;57384;51.986;4.458;2023-07-29T00:30:50;4.85;;;4.72;;
38487;SDS011;57384;51.986;4.458;2023-07-29T00:33:16;5.93;;;5.72;;
38487;SDS011;57384;51.986;4.458;2023-07-29T00:35:43;4.47;;;4.38;;
38487;SDS011;57384;51.986;4.458;2023-07-29T00:38:11;5.22;;;5.03;;
38487;SDS011;57384;51.986;4.458;2023-07-29T00:40:38;5.65;;;5.45;;
38487;SDS011;57384;51.986;4.458;2023-07-29T00:43:04;5.57;;;5.38;;
38487;SDS011;57384;51.986;4.458;2023-07-29T00:45:33;5.78;;;5.55;;
38487;SDS011;57384;51.986;4.458;2023-07-29T00:48:01;5.07;;;4.88;;
38487;SDS011;57384;51.986;4.458;2023-07-29T00:50:29;6.35;;;6.15;;
38487;SDS011;57384;51.986;4.458;2023-07-29T00:52:57;5.10;;;4.90;;
38487;SDS011;57384;51.986;4.458;2023-07-29T00:55:25;5.82;;;5.63;;
38487;SDS011;57384;51.986;4.458;2023-07-29T01:02:49;4.97;;;4.82;;
38487;SDS011;57384;51.986;4.458;2023-07-29T01:05:18;5.38;;;5.18;;
38487;SDS011;57384;51.986;4.458;2023-07-29T01:07:49;5.40;;;5.20;;
38487;SDS011;57384;51.986;4.458;2023-07-29T01:10:34;4.20;;;4.10;;
38487;SDS011;57384;51.986;4.458;2023-07-29T01:16:04;5.70;;;5.50;;
38487;SDS011;57384;51.986;4.458;2023-07-29T01:18:47;5.97;;;5.57;;
38487;SDS011;57384;51.986;4.458;2023-07-29T01:21:21;5.90;;;5.70;;
38487;SDS011;57384;51.986;4.458;2023-07-29T01:23:51;5.75;;;5.55;;
38487;SDS011;57384;51.986;4.458;2023-07-29T01:26:19;5.03;;;4.82;;
38487;SDS011;57384;51.986;4.458;2023-07-29T01:28:46;5.32;;;5.13;;
38487;SDS011;57384;51.986;4.458;2023-07-29T01:31:22;5.63;;;5.43;;
38487;SDS011;57384;51.986;4.458;2023-07-29T01:34:10;4.65;;;4.50;;
38487;SDS011;57384;51.986;4.458;2023-07-29T01:36:50;5.22;;;5.05;;
38487;SDS011;57384;51.986;4.458;2023-07-29T01:39:20;4.40;;;4.30;;
38487;SDS011;57384;51.986;4.458;2023-07-29T01:41:52;4.72;;;4.57;;
38487;SDS011;57384;51.986;4.458;2023-07-29T01:44:20;4.65;;;4.50;;
38487;SDS011;57384;51.986;4.458;2023-07-29T01:46:49;4.55;;;4.45;;
38487;SDS011;57384;51.986;4.458;2023-07-29T01:49:16;4.38;;;4.28;;
38487;SDS011;57384;51.986;4.458;2023-07-29T01:51:43;5.03;;;4.85;;
38487;SDS011;57384;51.986;4.458;2023-07-29T01:54:09;4.97;;;4.70;;
38487;SDS011;57384;51.986;4.458;2023-07-29T01:56:39;4.32;;;4.22;;
38487;SDS011;57384;51.986;4.458;2023-07-29T01:59:05;4.68;;;4.50;;
38487;SDS011;57384;51.986;4.458;2023-07-29T02:01:32;4.90;;;4.70;;
38487;SDS011;57384;51.986;4.458;2023-07-29T02:03:59;4.70;;;4.57;;
38487;SDS011;57384;51.986;4.458;2023-07-29T02:06:25;5.25;;;5.05;;
38487;SDS011;57384;51.986;4.458;2023-07-29T02:08:52;5.95;;;5.75;;
38487;SDS011;57384;51.986;4.458;2023-07-29T02:11:22;5.22;;;5.03;;
38487;SDS011;57384;51.986;4.458;2023-07-29T02:13:49;4.35;;;4.25;;
38487;SDS011;57384;51.986;4.458;2023-07-29T02:16:15;3.72;;;3.63;;
38487;SDS011;57384;51.986;4.458;2023-07-29T02:18:44;4.88;;;4.72;;
38487;SDS011;57384;51.986;4.458;2023-07-29T02:21:11;4.85;;;4.65;;
38487;SDS011;57384;51.986;4.458;2023-07-29T02:23:42;4.18;;;4.07;;
38487;SDS011;57384;51.986;4.458;2023-07-29T02:26:09;4.60;;;4.50;;
38487;SDS011;57384;51.986;4.458;2023-07-29T02:28:36;4.28;;;4.18;;
38487;SDS011;57384;51.986;4.458;2023-07-29T02:33:55;4.05;;;3.95;;
38487;SDS011;57384;51.986;4.458;2023-07-29T02:36:23;5.38;;;5.18;;
38487;SDS011;57384;51.986;4.458;2023-07-29T02:38:50;4.63;;;4.53;;
38487;SDS011;57384;51.986;4.458;2023-07-29T02:41:16;4.47;;;4.38;;
38487;SDS011;57384;51.986;4.458;2023-07-29T02:43:43;4.20;;;4.10;;
38487;SDS011;57384;51.986;4.458;2023-07-29T02:46:15;4.00;;;3.90;;
38487;SDS011;57384;51.986;4.458;2023-07-29T02:48:42;5.28;;;5.07;;
38487;SDS011;57384;51.986;4.458;2023-07-29T02:51:10;5.07;;;4.87;;
38487;SDS011;57384;51.986;4.458;2023-07-29T02:53:37;4.25;;;4.15;;
38487;SDS011;57384;51.986;4.458;2023-07-29T02:56:06;3.92;;;3.83;;
38487;SDS011;57384;51.986;4.458;2023-07-29T02:58:33;5.57;;;5.38;;
38487;SDS011;57384;51.986;4.458;2023-07-29T03:01:03;5.95;;;5.75;;
38487;SDS011;57384;51.986;4.458;2023-07-29T03:03:31;5.97;;;5.78;;
38487;SDS011;57384;51.986;4.458;2023-07-29T03:05:59;6.70;;;6.40;;
38487;SDS011;57384;51.986;4.458;2023-07-29T03:08:27;6.13;;;5.93;;
38487;SDS011;57384;51.986;4.458;2023-07-29T03:10:54;5.88;;;5.68;;
38487;SDS011;57384;51.986;4.458;2023-07-29T03:15:49;4.57;;;4.47;;
38487;SDS011;57384;51.986;4.458;2023-07-29T03:18:20;5.97;;;5.78;;
38487;SDS011;57384;51.986;4.458;2023-07-29T03:20:51;6.78;;;6.38;;
38487;SDS011;57384;51.986;4.458;2023-07-29T03:23:19;6.40;;;6.20;;
38487;SDS011;57384;51.986;4.458;2023-07-29T03:25:48;7.80;;;7.60;;
38487;SDS011;57384;51.986;4.458;2023-07-29T03:28:16;7.15;;;6.95;;
38487;SDS011;57384;51.986;4.458;2023-07-29T03:30:43;6.82;;;6.63;;
38487;SDS011;57384;51.986;4.458;2023-07-29T03:33:10;6.85;;;6.65;;
38487;SDS011;57384;51.986;4.458;2023-07-29T03:35:36;8.35;;;7.70;;
38487;SDS011;57384;51.986;4.458;2023-07-29T03:38:03;5.93;;;5.72;;
38487;SDS011;57384;51.986;4.458;2023-07-29T03:40:30;6.45;;;6.25;;
38487;SDS011;57384;51.986;4.458;2023-07-29T03:42:56;7.40;;;7.20;;
38487;SDS011;57384;51.986;4.458;2023-07-29T03:45:23;7.10;;;6.90;;
38487;SDS011;57384;51.986;4.458;2023-07-29T03:47:52;6.18;;;5.97;;
38487;SDS011;57384;51.986;4.458;2023-07-29T03:50:20;7.25;;;7.03;;
38487;SDS011;57384;51.986;4.458;2023-07-29T03:52:53;6.15;;;5.95;;
38487;SDS011;57384;51.986;4.458;2023-07-29T03:55:20;7.20;;;7.00;;
38487;SDS011;57384;51.986;4.458;2023-07-29T03:57:47;7.15;;;6.70;;
38487;SDS011;57384;51.986;4.458;2023-07-29T04:00:14;9.18;;;8.45;;
38487;SDS011;57384;51.986;4.458;2023-07-29T04:02:41;6.32;;;6.13;;
38487;SDS011;57384;51.986;4.458;2023-07-29T04:05:08;7.40;;;7.20;;
38487;SDS011;57384;51.986;4.458;2023-07-29T04:07:35;6.65;;;6.45;;
38487;SDS011;57384;51.986;4.458;2023-07-29T04:10:02;5.40;;;5.20;;
38487;SDS011;57384;51.986;4.458;2023-07-29T04:14:56;6.43;;;6.22;;
38487;SDS011;57384;51.986;4.458;2023-07-29T04:17:25;7.55;;;7.25;;
38487;SDS011;57384;51.986;4.458;2023-07-29T04:19:52;7.38;;;7.18;;
38487;SDS011;57384;51.986;4.458;2023-07-29T04:22:19;7.95;;;7.75;;
38487;SDS011;57384;51.986;4.458;2023-07-29T04:24:46;9.55;;;9.07;;
38487;SDS011;57384;51.986;4.458;2023-07-29T04:27:14;7.22;;;6.97;;
38487;SDS011;57384;51.986;4.458;2023-07-29T04:29:40;10.20;;;9.70;;
38487;SDS011;57384;51.986;4.458;2023-07-29T04:32:07;8.85;;;8.57;;
38487;SDS011;57384;51.986;4.458;2023-07-29T04:34:34;8.23;;;7.97;;
38487;SDS011;57384;51.986;4.458;2023-07-29T04:37:00;6.43;;;6.22;;
38487;SDS011;57384;51.986;4.458;2023-07-29T04:39:29;7.28;;;7.05;;
38487;SDS011;57384;51.986;4.458;2023-07-29T04:41:56;7.75;;;7.53;;
38487;SDS011;57384;51.986;4.458;2023-07-29T04:44:26;6.22;;;6.03;;
38487;SDS011;57384;51.986;4.458;2023-07-29T04:46:53;9.45;;;9.15;;
38487;SDS011;57384;51.986;4.458;2023-07-29T04:49:20;9.43;;;9.15;;
38487;SDS011;57384;51.986;4.458;2023-07-29T04:51:50;8.75;;;8.50;;
38487;SDS011;57384;51.986;4.458;2023-07-29T04:54:19;10.45;;;10.15;;
38487;SDS011;57384;51.986;4.458;2023-07-29T04:56:50;10.73;;;10.43;;
38487;SDS011;57384;51.986;4.458;2023-07-29T04:59:16;9.77;;;9.48;;
38487;SDS011;57384;51.986;4.458;2023-07-29T05:01:43;8.20;;;7.95;;
38487;SDS011;57384;51.986;4.458;2023-07-29T05:04:10;9.52;;;9.23;;
38487;SDS011;57384;51.986;4.458;2023-07-29T05:06:39;10.25;;;9.95;;
38487;SDS011;57384;51.986;4.458;2023-07-29T05:09:15;9.95;;;9.65;;
38487;SDS011;57384;51.986;4.458;2023-07-29T05:11:43;9.60;;;9.30;;
38487;SDS011;57384;51.986;4.458;2023-07-29T05:14:12;13.50;;;12.68;;
38487;SDS011;57384;51.986;4.458;2023-07-29T05:16:39;10.52;;;10.23;;
38487;SDS011;57384;51.986;4.458;2023-07-29T05:19:06;10.63;;;10.30;;
38487;SDS011;57384;51.986;4.458;2023-07-29T05:21:36;13.07;;;12.65;;
38487;SDS011;57384;51.986;4.458;2023-07-29T05:24:03;9.45;;;9.18;;
38487;SDS011;57384;51.986;4.458;2023-07-29T05:26:31;10.50;;;10.20;;
38487;SDS011;57384;51.986;4.458;2023-07-29T05:28:58;10.70;;;10.35;;
38487;SDS011;57384;51.986;4.458;2023-07-29T05:31:26;12.48;;;12.00;;
38487;SDS011;57384;51.986;4.458;2023-07-29T05:34:00;11.40;;;11.05;;
38487;SDS011;57384;51.986;4.458;2023-07-29T05:36:27;11.15;;;10.80;;
38487;SDS011;57384;51.986;4.458;2023-07-29T05:38:55;11.93;;;11.57;;
38487;SDS011;57384;51.986;4.458;2023-07-29T05:41:23;13.23;;;12.82;;
38487;SDS011;57384;51.986;4.458;2023-07-29T05:43:50;13.57;;;13.10;;
38487;SDS011;57384;51.986;4.458;2023-07-29T05:46:17;10.25;;;9.95;;
38487;SDS011;57384;51.986;4.458;2023-07-29T05:48:44;12.82;;;12.30;;
38487;SDS011;57384;51.986;4.458;2023-07-29T05:51:12;11.10;;;10.75;;
38487;SDS011;57384;51.986;4.458;2023-07-29T05:53:39;10.25;;;9.95;;
38487;SDS011;57384;51.986;4.458;2023-07-29T05:56:06;9.73;;;9.43;;
38487;SDS011;57384;51.986;4.458;2023-07-29T05:58:33;12.70;;;12.27;;
38487;SDS011;57384;51.986;4.458;2023-07-29T06:01:00;13.63;;;12.70;;
38487;SDS011;57384;51.986;4.458;2023-07-29T06:03:28;10.23;;;9.93;;
38487;SDS011;57384;51.986;4.458;2023-07-29T06:05:55;13.25;;;12.85;;
38487;SDS011;57384;51.986;4.458;2023-07-29T06:08:22;10.98;;;10.68;;
38487;SDS011;57384;51.986;4.458;2023-07-29T06:10:59;12.65;;;12.23;;
38487;SDS011;57384;51.986;4.458;2023-07-29T06:13:28;12.23;;;11.85;;
38487;SDS011;57384;51.986;4.458;2023-07-29T06:15:55;12.13;;;11.73;;
38487;SDS011;57384;51.986;4.458;2023-07-29T06:18:23;11.32;;;11.00;;
38487;SDS011;57384;51.986;4.458;2023-07-29T06:20:50;9.20;;;8.90;;
38487;SDS011;57384;51.986;4.458;2023-07-29T06:25:45;9.35;;;9.07;;
38487;SDS011;57384;51.986;4.458;2023-07-29T06:28:12;11.65;;;11.25;;
38487;SDS011;57384;51.986;4.458;2023-07-29T06:30:41;11.45;;;10.95;;
38487;SDS011;57384;51.986;4.458;2023-07-29T06:33:11;9.05;;;8.77;;
38487;SDS011;57384;51.986;4.458;2023-07-29T06:35:37;11.05;;;10.75;;
38487;SDS011;57384;51.986;4.458;2023-07-29T06:38:04;11.52;;;11.18;;
38487;SDS011;57384;51.986;4.458;2023-07-29T06:40:31;12.57;;;12.18;;
38487;SDS011;57384;51.986;4.458;2023-07-29T06:42:58;10.27;;;9.98;;
38487;SDS011;57384;51.986;4.458;2023-07-29T06:45:24;12.45;;;12.05;;
38487;SDS011;57384;51.986;4.458;2023-07-29T06:47:51;11.02;;;10.73;;
38487;SDS011;57384;51.986;4.458;2023-07-29T06:50:18;10.45;;;10.15;;
38487;SDS011;57384;51.986;4.458;2023-07-29T06:52:45;11.40;;;11.10;;
38487;SDS011;57384;51.986;4.458;2023-07-29T06:55:12;7.70;;;7.50;;
38487;SDS011;57384;51.986;4.458;2023-07-29T06:57:39;9.77;;;9.48;;
38487;SDS011;57384;51.986;4.458;2023-07-29T07:00:07;9.68;;;9.38;;
38487;SDS011;57384;51.986;4.458;2023-07-29T07:02:35;7.82;;;7.63;;
38487;SDS011;57384;51.986;4.458;2023-07-29T07:05:01;8.23;;;8.02;;
38487;SDS011;57384;51.986;4.458;2023-07-29T07:07:28;7.80;;;7.60;;
38487;SDS011;57384;51.986;4.458;2023-07-29T07:09:57;7.25;;;7.05;;
38487;SDS011;57384;51.986;4.458;2023-07-29T07:12:23;7.45;;;7.15;;
38487;SDS011;57384;51.986;4.458;2023-07-29T07:14:50;6.00;;;5.80;;
38487;SDS011;57384;51.986;4.458;2023-07-29T07:17:16;6.03;;;5.82;;
38487;SDS011;57384;51.986;4.458;2023-07-29T07:19:43;6.97;;;6.78;;
38487;SDS011;57384;51.986;4.458;2023-07-29T07:22:11;6.43;;;6.22;;
38487;SDS011;57384;51.986;4.458;2023-07-29T07:24:38;7.03;;;6.82;;
38487;SDS011;57384;51.986;4.458;2023-07-29T07:27:05;7.00;;;6.80;;
38487;SDS011;57384;51.986;4.458;2023-07-29T07:29:32;5.82;;;5.63;;
38487;SDS011;57384;51.986;4.458;2023-07-29T07:31:58;5.05;;;4.88;;
38487;SDS011;57384;51.986;4.458;2023-07-29T07:34:25;4.65;;;4.50;;
38487;SDS011;57384;51.986;4.458;2023-07-29T07:36:52;6.05;;;5.85;;
38487;SDS011;57384;51.986;4.458;2023-07-29T07:39:18;4.40;;;4.28;;
38487;SDS011;57384;51.986;4.458;2023-07-29T07:41:45;5.85;;;5.40;;
38487;SDS011;57384;51.986;4.458;2023-07-29T07:44:12;4.95;;;4.80;;
38487;SDS011;57384;51.986;4.458;2023-07-29T07:46:39;6.10;;;5.65;;
38487;SDS011;57384;51.986;4.458;2023-07-29T07:49:06;6.25;;;5.97;;
38487;SDS011;57384;51.986;4.458;2023-07-29T07:51:32;5.45;;;5.25;;
38487;SDS011;57384;51.986;4.458;2023-07-29T07:53:59;5.40;;;5.20;;
38487;SDS011;57384;51.986;4.458;2023-07-29T07:56:26;4.82;;;4.68;;
38487;SDS011;57384;51.986;4.458;2023-07-29T07:58:52;5.32;;;5.13;;
38487;SDS011;57384;51.986;4.458;2023-07-29T08:01:19;5.03;;;4.82;;
38487;SDS011;57384;51.986;4.458;2023-07-29T08:03:45;4.40;;;4.30;;
38487;SDS011;57384;51.986;4.458;2023-07-29T08:06:12;4.90;;;4.75;;
38487;SDS011;57384;51.986;4.458;2023-07-29T08:08:39;7.43;;;7.13;;
38487;SDS011;57384;51.986;4.458;2023-07-29T08:11:05;7.25;;;7.05;;
38487;SDS011;57384;51.986;4.458;2023-07-29T08:13:35;7.55;;;7.35;;
38487;SDS011;57384;51.986;4.458;2023-07-29T08:16:02;9.82;;;9.40;;
38487;SDS011;57384;51.986;4.458;2023-07-29T08:18:29;8.02;;;7.82;;
38487;SDS011;57384;51.986;4.458;2023-07-29T08:20:58;8.77;;;8.48;;
38487;SDS011;57384;51.986;4.458;2023-07-29T08:23:25;7.57;;;7.28;;
38487;SDS011;57384;51.986;4.458;2023-07-29T08:25:53;8.10;;;7.70;;
38487;SDS011;57384;51.986;4.458;2023-07-29T08:33:52;6.20;;;6.00;;
38487;SDS011;57384;51.986;4.458;2023-07-29T08:36:19;6.10;;;5.90;;
38487;SDS011;57384;51.986;4.458;2023-07-29T08:38:47;6.43;;;6.22;;
38487;SDS011;57384;51.986;4.458;2023-07-29T08:41:14;4.78;;;4.63;;
38487;SDS011;57384;51.986;4.458;2023-07-29T08:43:52;6.22;;;6.03;;
38487;SDS011;57384;51.986;4.458;2023-07-29T08:46:28;5.38;;;5.18;;
38487;SDS011;57384;51.986;4.458;2023-07-29T08:48:55;4.88;;;4.72;;
38487;SDS011;57384;51.986;4.458;2023-07-29T08:51:23;5.35;;;5.15;;
38487;SDS011;57384;51.986;4.458;2023-07-29T08:53:50;5.35;;;5.15;;
38487;SDS011;57384;51.986;4.458;2023-07-29T09:01:11;4.35;;;4.25;;
38487;SDS011;57384;51.986;4.458;2023-07-29T09:03:38;6.25;;;6.05;;
38487;SDS011;57384;51.986;4.458;2023-07-29T09:06:04;5.70;;;5.50;;
38487;SDS011;57384;51.986;4.458;2023-07-29T09:08:33;5.82;;;5.63;;
38487;SDS011;57384;51.986;4.458;2023-07-29T09:11:02;5.95;;;5.75;;
38487;SDS011;57384;51.986;4.458;2023-07-29T09:13:29;6.07;;;5.88;;
38487;SDS011;57384;51.986;4.458;2023-07-29T09:15:57;6.70;;;6.50;;
38487;SDS011;57384;51.986;4.458;2023-07-29T09:18:25;6.18;;;5.97;;
38487;SDS011;57384;51.986;4.458;2023-07-29T09:20:53;6.22;;;6.03;;
38487;SDS011;57384;51.986;4.458;2023-07-29T09:23:20;6.38;;;6.18;;
38487;SDS011;57384;51.986;4.458;2023-07-29T09:25:52;6.05;;;5.85;;
38487;SDS011;57384;51.986;4.458;2023-07-29T09:28:27;6.30;;;6.10;;
38487;SDS011;57384;51.986;4.458;2023-07-29T09:31:04;6.28;;;6.07;;
38487;SDS011;57384;51.986;4.458;2023-07-29T09:33:34;6.70;;;6.50;;
38487;SDS011;57384;51.986;4.458;2023-07-29T09:36:10;6.65;;;6.45;;
38487;SDS011;57384;51.986;4.458;2023-07-29T09:38:37;6.72;;;6.53;;
38487;SDS011;57384;51.986;4.458;2023-07-29T09:41:04;7.00;;;6.80;;
38487;SDS011;57384;51.986;4.458;2023-07-29T09:43:32;7.30;;;7.10;;
38487;SDS011;57384;51.986;4.458;2023-07-29T09:46:00;6.65;;;6.45;;
38487;SDS011;57384;51.986;4.458;2023-07-29T09:48:36;6.22;;;6.03;;
38487;SDS011;57384;51.986;4.458;2023-07-29T09:51:13;6.88;;;6.57;;
38487;SDS011;57384;51.986;4.458;2023-07-29T09:53:47;7.88;;;7.57;;
38487;SDS011;57384;51.986;4.458;2023-07-29T09:56:17;6.63;;;6.43;;
38487;SDS011;57384;51.986;4.458;2023-07-29T09:58:44;23.17;;;7.93;;
38487;SDS011;57384;51.986;4.458;2023-07-29T10:01:12;7.13;;;6.93;;
38487;SDS011;57384;51.986;4.458;2023-07-29T10:03:39;7.13;;;6.93;;
38487;SDS011;57384;51.986;4.458;2023-07-29T10:06:14;6.45;;;6.25;;
38487;SDS011;57384;51.986;4.458;2023-07-29T10:08:43;7.10;;;6.90;;
38487;SDS011;57384;51.986;4.458;2023-07-29T10:11:10;7.70;;;7.50;;
38487;SDS011;57384;51.986;4.458;2023-07-29T10:13:39;7.43;;;7.22;;
38487;SDS011;57384;51.986;4.458;2023-07-29T10:16:05;6.07;;;5.88;;
38487;SDS011;57384;51.986;4.458;2023-07-29T10:18:41;7.25;;;7.05;;
38487;SDS011;57384;51.986;4.458;2023-07-29T10:21:09;6.53;;;6.32;;
38487;SDS011;57384;51.986;4.458;2023-07-29T10:23:42;7.38;;;7.18;;
38487;SDS011;57384;51.986;4.458;2023-07-29T10:26:13;7.45;;;7.25;;
38487;SDS011;57384;51.986;4.458;2023-07-29T10:28:44;7.00;;;6.80;;
38487;SDS011;57384;51.986;4.458;2023-07-29T10:31:16;7.20;;;7.00;;
38487;SDS011;57384;51.986;4.458;2023-07-29T10:33:45;6.78;;;6.57;;
38487;SDS011;57384;51.986;4.458;2023-07-29T10:36:15;7.45;;;7.25;;
38487;SDS011;57384;51.986;4.458;2023-07-29T10:43:38;6.20;;;6.00;;
38487;SDS011;57384;51.986;4.458;2023-07-29T10:46:14;6.43;;;6.22;;
38487;SDS011;57384;51.986;4.458;2023-07-29T10:51:27;5.70;;;5.50;;
38487;SDS011;57384;51.986;4.458;2023-07-29T10:53:57;6.45;;;6.25;;
38487;SDS011;57384;51.986;4.458;2023-07-29T10:56:36;6.53;;;6.32;;
38487;SDS011;57384;51.986;4.458;2023-07-29T11:01:40;6.05;;;5.85;;
38487;SDS011;57384;51.986;4.458;2023-07-29T11:15:13;5.97;;;5.78;;
38487;SDS011;57384;51.986;4.458;2023-07-29T11:18:00;5.95;;;5.75;;
38487;SDS011;57384;51.986;4.458;2023-07-29T11:23:02;6.40;;;6.20;;
38487;SDS011;57384;51.986;4.458;2023-07-29T11:25:35;6.03;;;5.82;;
38487;SDS011;57384;51.986;4.458;2023-07-29T11:28:02;6.43;;;6.22;;
38487;SDS011;57384;51.986;4.458;2023-07-29T11:30:29;6.50;;;6.30;;
38487;SDS011;57384;51.986;4.458;2023-07-29T11:32:58;6.88;;;6.68;;
38487;SDS011;57384;51.986;4.458;2023-07-29T11:35:25;7.00;;;6.80;;
38487;SDS011;57384;51.986;4.458;2023-07-29T11:37:53;6.90;;;6.70;;
38487;SDS011;57384;51.986;4.458;2023-07-29T11:40:26;7.13;;;6.93;;
38487;SDS011;57384;51.986;4.458;2023-07-29T11:42:59;6.72;;;6.53;;
38487;SDS011;57384;51.986;4.458;2023-07-29T11:45:26;6.72;;;6.53;;
38487;SDS011;57384;51.986;4.458;2023-07-29T11:47:55;6.32;;;6.13;;
38487;SDS011;57384;51.986;4.458;2023-07-29T11:50:25;7.20;;;7.00;;
38487;SDS011;57384;51.986;4.458;2023-07-29T11:52:52;7.50;;;7.30;;
38487;SDS011;57384;51.986;4.458;2023-07-29T11:55:24;7.47;;;7.28;;
38487;SDS011;57384;51.986;4.458;2023-07-29T11:57:52;7.72;;;7.53;;
38487;SDS011;57384;51.986;4.458;2023-07-29T12:00:20;8.15;;;7.95;;
38487;SDS011;57384;51.986;4.458;2023-07-29T12:02:53;8.20;;;8.00;;
38487;SDS011;57384;51.986;4.458;2023-07-29T12:05:22;9.05;;;8.77;;
38487;SDS011;57384;51.986;4.458;2023-07-29T12:07:50;9.43;;;9.13;;
38487;SDS011;57384;51.986;4.458;2023-07-29T12:10:18;9.73;;;9.43;;
38487;SDS011;57384;51.986;4.458;2023-07-29T12:12:46;9.65;;;9.35;;
38487;SDS011;57384;51.986;4.458;2023-07-29T12:15:23;9.77;;;9.48;;
38487;SDS011;57384;51.986;4.458;2023-07-29T12:17:52;9.65;;;9.35;;
38487;SDS011;57384;51.986;4.458;2023-07-29T12:20:21;9.98;;;9.68;;
38487;SDS011;57384;51.986;4.458;2023-07-29T12:22:55;9.65;;;9.35;;
38487;SDS011;57384;51.986;4.458;2023-07-29T12:25:23;9.88;;;9.57;;
38487;SDS011;57384;51.986;4.458;2023-07-29T12:27:52;9.95;;;9.65;;
38487;SDS011;57384;51.986;4.458;2023-07-29T12:30:21;9.52;;;9.23;;
38487;SDS011;57384;51.986;4.458;2023-07-29T12:32:50;8.95;;;8.65;;
38487;SDS011;57384;51.986;4.458;2023-07-29T12:35:16;9.38;;;9.07;;
38487;SDS011;57384;51.986;4.458;2023-07-29T12:37:43;8.57;;;8.38;;
38487;SDS011;57384;51.986;4.458;2023-07-29T12:40:43;8.02;;;7.82;;
38487;SDS011;57384;51.986;4.458;2023-07-29T12:43:04;9.30;;;9.00;;
38487;SDS011;57384;51.986;4.458;2023-07-29T12:45:35;8.98;;;8.73;;
38487;SDS011;57384;51.986;4.458;2023-07-29T12:48:02;7.50;;;7.30;;
38487;SDS011;57384;51.986;4.458;2023-07-29T12:50:29;7.00;;;6.80;;
38487;SDS011;57384;51.986;4.458;2023-07-29T12:52:55;7.93;;;7.72;;
38487;SDS011;57384;51.986;4.458;2023-07-29T12:55:23;8.25;;;7.95;;
38487;SDS011;57384;51.986;4.458;2023-07-29T12:57:50;7.15;;;6.95;;
38487;SDS011;57384;51.986;4.458;2023-07-29T13:02:43;7.13;;;6.93;;
38487;SDS011;57384;51.986;4.458;2023-07-29T13:05:11;5.30;;;5.10;;
38487;SDS011;57384;51.986;4.458;2023-07-29T13:07:38;6.72;;;6.53;;
38487;SDS011;57384;51.986;4.458;2023-07-29T13:10:05;4.07;;;3.97;;
38487;SDS011;57384;51.986;4.458;2023-07-29T13:12:32;5.60;;;5.32;;
38487;SDS011;57384;51.986;4.458;2023-07-29T13:15:00;3.03;;;2.92;;
38487;SDS011;57384;51.986;4.458;2023-07-29T13:17:29;2.78;;;2.67;;
38487;SDS011;57384;51.986;4.458;2023-07-29T13:19:57;2.42;;;2.33;;
38487;SDS011;57384;51.986;4.458;2023-07-29T13:22:24;2.38;;;2.28;;
38487;SDS011;57384;51.986;4.458;2023-07-29T13:27:17;2.22;;;2.13;;
38487;SDS011;57384;51.986;4.458;2023-07-29T13:32:10;2.58;;;2.47;;
38487;SDS011;57384;51.986;4.458;2023-07-29T13:37:03;1.80;;;1.70;;
38487;SDS011;57384;51.986;4.458;2023-07-29T13:39:32;1.33;;;1.23;;
38487;SDS011;57384;51.986;4.458;2023-07-29T13:42:00;0.80;;;0.80;;
38487;SDS011;57384;51.986;4.458;2023-07-29T13:46:53;0.80;;;0.80;;
38487;SDS011;57384;51.986;4.458;2023-07-29T13:49:20;0.73;;;0.73;;
38487;SDS011;57384;51.986;4.458;2023-07-29T13:54:15;0.60;;;0.60;;
38487;SDS011;57384;51.986;4.458;2023-07-29T13:56:43;0.70;;;0.70;;
38487;SDS011;57384;51.986;4.458;2023-07-29T13:59:09;0.65;;;0.65;;
38487;SDS011;57384;51.986;4.458;2023-07-29T14:04:03;0.57;;;0.57;;
38487;SDS011;57384;51.986;4.458;2023-07-29T14:06:32;0.60;;;0.60;;
38487;SDS011;57384;51.986;4.458;2023-07-29T14:08:58;0.90;;;0.90;;
38487;SDS011;57384;51.986;4.458;2023-07-29T14:13:52;0.50;;;0.50;;
38487;SDS011;57384;51.986;4.458;2023-07-29T14:18:45;0.60;;;0.60;;
38487;SDS011;57384;51.986;4.458;2023-07-29T14:21:13;1.58;;;0.82;;
38487;SDS011;57384;51.986;4.458;2023-07-29T14:23:40;0.52;;;0.52;;
38487;SDS011;57384;51.986;4.458;2023-07-29T14:26:13;0.50;;;0.50;;
38487;SDS011;57384;51.986;4.458;2023-07-29T14:28:39;0.65;;;0.65;;
38487;SDS011;57384;51.986;4.458;2023-07-29T14:33:32;0.60;;;0.60;;
38487;SDS011;57384;51.986;4.458;2023-07-29T14:36:00;0.60;;;0.60;;
38487;SDS011;57384;51.986;4.458;2023-07-29T14:38:27;0.50;;;0.50;;
38487;SDS011;57384;51.986;4.458;2023-07-29T14:40:54;0.50;;;0.50;;
38487;SDS011;57384;51.986;4.458;2023-07-29T14:43:21;0.50;;;0.50;;
38487;SDS011;57384;51.986;4.458;2023-07-29T14:45:48;0.60;;;0.60;;
38487;SDS011;57384;51.986;4.458;2023-07-29T14:48:16;0.77;;;0.77;;
38487;SDS011;57384;51.986;4.458;2023-07-29T14:50:43;0.50;;;0.50;;
38487;SDS011;57384;51.986;4.458;2023-07-29T14:53:10;0.50;;;0.50;;
38487;SDS011;57384;51.986;4.458;2023-07-29T14:55:37;0.60;;;0.60;;
38487;SDS011;57384;51.986;4.458;2023-07-29T14:58:07;0.65;;;0.65;;
38487;SDS011;57384;51.986;4.458;2023-07-29T15:00:34;0.60;;;0.60;;
38487;SDS011;57384;51.986;4.458;2023-07-29T15:03:02;1.08;;;0.98;;
38487;SDS011;57384;51.986;4.458;2023-07-29T15:07:55;0.60;;;0.60;;
38487;SDS011;57384;51.986;4.458;2023-07-29T15:10:23;0.68;;;0.65;;
38487;SDS011;57384;51.986;4.458;2023-07-29T15:15:16;0.60;;;0.60;;
38487;SDS011;57384;51.986;4.458;2023-07-29T15:17:43;0.63;;;0.63;;
38487;SDS011;57384;51.986;4.458;2023-07-29T15:22:39;0.80;;;0.80;;
38487;SDS011;57384;51.986;4.458;2023-07-29T15:25:08;0.60;;;0.60;;
38487;SDS011;57384;51.986;4.458;2023-07-29T15:27:37;3.00;;;1.23;;
38487;SDS011;57384;51.986;4.458;2023-07-29T15:30:04;0.50;;;0.50;;
38487;SDS011;57384;51.986;4.458;2023-07-29T15:32:31;0.60;;;0.60;;
38487;SDS011;57384;51.986;4.458;2023-07-29T15:34:59;0.60;;;0.60;;
38487;SDS011;57384;51.986;4.458;2023-07-29T15:37:26;0.60;;;0.60;;
38487;SDS011;57384;51.986;4.458;2023-07-29T15:39:53;0.70;;;0.70;;
38487;SDS011;57384;51.986;4.458;2023-07-29T15:44:46;0.60;;;0.60;;
38487;SDS011;57384;51.986;4.458;2023-07-29T15:49:40;0.60;;;0.60;;
38487;SDS011;57384;51.986;4.458;2023-07-29T15:54:34;0.60;;;0.60;;
38487;SDS011;57384;51.986;4.458;2023-07-29T15:57:02;2.88;;;1.35;;
38487;SDS011;57384;51.986;4.458;2023-07-29T15:59:29;1.00;;;1.00;;
38487;SDS011;57384;51.986;4.458;2023-07-29T16:02:01;0.75;;;0.75;;
38487;SDS011;57384;51.986;4.458;2023-07-29T16:04:31;0.70;;;0.70;;
38487;SDS011;57384;51.986;4.458;2023-07-29T16:06:57;2.47;;;1.00;;
38487;SDS011;57384;51.986;4.458;2023-07-29T16:09:25;0.70;;;0.70;;
38487;SDS011;57384;51.986;4.458;2023-07-29T16:11:52;0.70;;;0.70;;
38487;SDS011;57384;51.986;4.458;2023-07-29T16:14:21;0.65;;;0.65;;
38487;SDS011;57384;51.986;4.458;2023-07-29T16:16:48;0.68;;;0.68;;
38487;SDS011;57384;51.986;4.458;2023-07-29T16:19:22;0.60;;;0.60;;
38487;SDS011;57384;51.986;4.458;2023-07-29T16:24:18;0.80;;;0.80;;
38487;SDS011;57384;51.986;4.458;2023-07-29T16:29:11;0.73;;;0.73;;